Aviation Digital Data Service (ADDS)

Output produced by METARs form (2300 UTC 01 February 2023)
found at http://www.aviationweather.gov/metar/data/
 
KMCN 012253Z 22003KT 10SM CLR 18/15 A3017 RMK AO2 SLP214 T01780150
KMCN 011732Z 0118/0218 30006KT P6SM SCT008 OVC015 
     FM012200 30004KT P6SM OVC025 
     FM021000 00000KT P6SM OVC012 
     FM021500 VRB03KT P6SM -SHRA OVC012